sensor_id;sensor_type;location;lat;lon;timestamp;temperature;humidity
7159;DHT22;63175;52.374;13.132;2023-04-01T00:01:12;10.60;99.90
7159;DHT22;63175;52.374;13.132;2023-04-01T00:03:40;10.60;99.90
7159;DHT22;63175;52.374;13.132;2023-04-01T00:06:10;10.60;99.90
7159;DHT22;63175;52.374;13.132;2023-04-01T00:08:39;10.60;99.90
7159;DHT22;63175;52.374;13.132;2023-04-01T00:11:06;10.60;99.90
7159;DHT22;63175;52.374;13.132;2023-04-01T00:13:32;10.60;99.90
7159;DHT22;63175;52.374;13.132;2023-04-01T00:16:00;10.60;99.90
7159;DHT22;63175;52.374;13.132;2023-04-01T00:18:28;10.60;99.90
7159;DHT22;63175;52.374;13.132;2023-04-01T00:20:55;10.50;99.90
7159;DHT22;63175;52.374;13.132;2023-04-01T00:23:23;10.60;99.90
7159;DHT22;63175;52.374;13.132;2023-04-01T00:25:50;10.50;99.90
7159;DHT22;63175;52.374;13.132;2023-04-01T00:28:18;10.60;99.90
7159;DHT22;63175;52.374;13.132;2023-04-01T00:30:45;10.50;99.90
7159;DHT22;63175;52.374;13.132;2023-04-01T00:33:12;10.50;99.90
7159;DHT22;63175;52.374;13.132;2023-04-01T00:35:39;10.50;99.90
7159;DHT22;63175;52.374;13.132;2023-04-01T00:38:07;10.50;99.90
7159;DHT22;63175;52.374;13.132;2023-04-01T00:40:38;10.50;99.90
7159;DHT22;63175;52.374;13.132;2023-04-01T00:43:11;10.50;99.90
7159;DHT22;63175;52.374;13.132;2023-04-01T00:45:39;10.50;99.90
7159;DHT22;63175;52.374;13.132;2023-04-01T00:48:09;10.50;99.90
7159;DHT22;63175;52.374;13.132;2023-04-01T00:50:37;10.50;99.90
7159;DHT22;63175;52.374;13.132;2023-04-01T00:53:07;10.50;99.90
7159;DHT22;63175;52.374;13.132;2023-04-01T00:55:40;10.50;99.90
7159;DHT22;63175;52.374;13.132;2023-04-01T00:58:13;10.50;99.90
7159;DHT22;63175;52.374;13.132;2023-04-01T01:00:42;10.50;99.90
7159;DHT22;63175;52.374;13.132;2023-04-01T01:03:09;10.50;99.90
7159;DHT22;63175;52.374;13.132;2023-04-01T01:05:52;10.50;99.90
7159;DHT22;63175;52.374;13.132;2023-04-01T01:08:28;10.50;99.90
7159;DHT22;63175;52.374;13.132;2023-04-01T01:11:05;10.50;99.90
7159;DHT22;63175;52.374;13.132;2023-04-01T01:13:38;10.50;99.90
7159;DHT22;63175;52.374;13.132;2023-04-01T01:16:14;10.50;99.90
7159;DHT22;63175;52.374;13.132;2023-04-01T01:18:46;10.50;99.90
7159;DHT22;63175;52.374;13.132;2023-04-01T01:21:36;10.50;99.90
7159;DHT22;63175;52.374;13.132;2023-04-01T01:24:26;10.50;99.90
7159;DHT22;63175;52.374;13.132;2023-04-01T01:27:05;10.50;99.90
7159;DHT22;63175;52.374;13.132;2023-04-01T01:29:57;10.50;99.90
7159;DHT22;63175;52.374;13.132;2023-04-01T01:32:41;10.50;99.90
7159;DHT22;63175;52.374;13.132;2023-04-01T01:35:22;10.50;99.90
7159;DHT22;63175;52.374;13.132;2023-04-01T01:37:53;10.50;99.90
7159;DHT22;63175;52.374;13.132;2023-04-01T01:40:23;10.50;99.90
7159;DHT22;63175;52.374;13.132;2023-04-01T01:42:55;10.50;99.90
7159;DHT22;63175;52.374;13.132;2023-04-01T01:45:24;10.50;99.90
7159;DHT22;63175;52.374;13.132;2023-04-01T01:47:52;10.50;99.90
7159;DHT22;63175;52.374;13.132;2023-04-01T01:50:21;10.50;99.90
7159;DHT22;63175;52.374;13.132;2023-04-01T01:52:49;10.50;99.90
7159;DHT22;63175;52.374;13.132;2023-04-01T01:55:27;10.50;99.90
7159;DHT22;63175;52.374;13.132;2023-04-01T01:57:57;10.50;99.90
7159;DHT22;63175;52.374;13.132;2023-04-01T02:00:25;10.50;99.90
7159;DHT22;63175;52.374;13.132;2023-04-01T02:02:53;10.50;99.90
7159;DHT22;63175;52.374;13.132;2023-04-01T02:05:23;10.50;99.90
7159;DHT22;63175;52.374;13.132;2023-04-01T02:07:57;10.50;99.90
7159;DHT22;63175;52.374;13.132;2023-04-01T02:10:27;10.50;99.90
7159;DHT22;63175;52.374;13.132;2023-04-01T02:12:58;10.50;99.90
7159;DHT22;63175;52.374;13.132;2023-04-01T02:15:27;10.50;99.90
7159;DHT22;63175;52.374;13.132;2023-04-01T02:17:56;10.50;99.90
7159;DHT22;63175;52.374;13.132;2023-04-01T02:20:25;10.50;99.90
7159;DHT22;63175;52.374;13.132;2023-04-01T02:22:55;10.50;99.90
7159;DHT22;63175;52.374;13.132;2023-04-01T02:25:26;10.50;99.90
7159;DHT22;63175;52.374;13.132;2023-04-01T02:27:55;10.50;99.90
7159;DHT22;63175;52.374;13.132;2023-04-01T02:30:23;10.50;99.90
7159;DHT22;63175;52.374;13.132;2023-04-01T02:32:51;10.50;99.90
7159;DHT22;63175;52.374;13.132;2023-04-01T02:35:18;10.50;99.90
7159;DHT22;63175;52.374;13.132;2023-04-01T02:37:48;10.50;99.90
7159;DHT22;63175;52.374;13.132;2023-04-01T02:40:16;10.50;99.90
7159;DHT22;63175;52.374;13.132;2023-04-01T02:42:43;10.50;99.90
7159;DHT22;63175;52.374;13.132;2023-04-01T02:45:12;10.40;99.90
7159;DHT22;63175;52.374;13.132;2023-04-01T02:47:40;10.50;99.90
7159;DHT22;63175;52.374;13.132;2023-04-01T02:50:07;10.40;99.90
7159;DHT22;63175;52.374;13.132;2023-04-01T02:52:35;10.40;99.90
7159;DHT22;63175;52.374;13.132;2023-04-01T02:55:06;10.40;99.90
7159;DHT22;63175;52.374;13.132;2023-04-01T02:57:33;10.40;99.90
7159;DHT22;63175;52.374;13.132;2023-04-01T03:00:00;10.40;99.90
7159;DHT22;63175;52.374;13.132;2023-04-01T03:02:27;10.40;99.90
7159;DHT22;63175;52.374;13.132;2023-04-01T03:04:54;10.50;99.90
7159;DHT22;63175;52.374;13.132;2023-04-01T03:07:20;10.40;99.90
7159;DHT22;63175;52.374;13.132;2023-04-01T03:09:47;10.40;99.90
7159;DHT22;63175;52.374;13.132;2023-04-01T03:12:15;10.40;99.90
7159;DHT22;63175;52.374;13.132;2023-04-01T03:14:42;10.40;99.90
7159;DHT22;63175;52.374;13.132;2023-04-01T03:17:09;10.40;99.90
7159;DHT22;63175;52.374;13.132;2023-04-01T03:19:36;10.40;99.90
7159;DHT22;63175;52.374;13.132;2023-04-01T03:22:03;10.40;99.90
7159;DHT22;63175;52.374;13.132;2023-04-01T03:24:29;10.40;99.90
7159;DHT22;63175;52.374;13.132;2023-04-01T03:26:56;10.40;99.90
7159;DHT22;63175;52.374;13.132;2023-04-01T03:29:24;10.40;99.90
7159;DHT22;63175;52.374;13.132;2023-04-01T03:31:51;10.40;99.90
7159;DHT22;63175;52.374;13.132;2023-04-01T03:34:18;10.40;99.90
7159;DHT22;63175;52.374;13.132;2023-04-01T03:36:45;10.40;99.90
7159;DHT22;63175;52.374;13.132;2023-04-01T03:39:12;10.40;99.90
7159;DHT22;63175;52.374;13.132;2023-04-01T03:41:38;10.30;99.90
7159;DHT22;63175;52.374;13.132;2023-04-01T03:44:06;10.40;99.90
7159;DHT22;63175;52.374;13.132;2023-04-01T03:46:34;10.30;99.90
7159;DHT22;63175;52.374;13.132;2023-04-01T03:49:01;10.30;99.90
7159;DHT22;63175;52.374;13.132;2023-04-01T03:51:28;10.30;99.90
7159;DHT22;63175;52.374;13.132;2023-04-01T03:53:55;10.30;99.90
7159;DHT22;63175;52.374;13.132;2023-04-01T03:56:22;10.30;99.90
7159;DHT22;63175;52.374;13.132;2023-04-01T03:58:49;10.30;99.90
7159;DHT22;63175;52.374;13.132;2023-04-01T04:01:17;10.30;99.90
7159;DHT22;63175;52.374;13.132;2023-04-01T04:03:47;10.30;99.90
7159;DHT22;63175;52.374;13.132;2023-04-01T04:06:16;10.30;99.90
7159;DHT22;63175;52.374;13.132;2023-04-01T04:08:43;10.30;99.90
7159;DHT22;63175;52.374;13.132;2023-04-01T04:11:11;10.30;99.90
7159;DHT22;63175;52.374;13.132;2023-04-01T04:13:38;10.30;99.90
7159;DHT22;63175;52.374;13.132;2023-04-01T04:16:05;10.30;99.90
7159;DHT22;63175;52.374;13.132;2023-04-01T04:18:32;10.20;99.90
7159;DHT22;63175;52.374;13.132;2023-04-01T04:21:01;10.30;99.90
7159;DHT22;63175;52.374;13.132;2023-04-01T04:23:28;10.30;99.90
7159;DHT22;63175;52.374;13.132;2023-04-01T04:25:56;10.30;99.90
7159;DHT22;63175;52.374;13.132;2023-04-01T04:28:23;10.30;99.90
7159;DHT22;63175;52.374;13.132;2023-04-01T04:30:51;10.30;99.90
7159;DHT22;63175;52.374;13.132;2023-04-01T04:33:18;10.30;99.90
7159;DHT22;63175;52.374;13.132;2023-04-01T04:35:45;10.30;99.90
7159;DHT22;63175;52.374;13.132;2023-04-01T04:38:13;10.30;99.90
7159;DHT22;63175;52.374;13.132;2023-04-01T04:40:41;10.40;99.90
7159;DHT22;63175;52.374;13.132;2023-04-01T04:43:10;10.30;99.90
7159;DHT22;63175;52.374;13.132;2023-04-01T04:45:37;10.30;99.90
7159;DHT22;63175;52.374;13.132;2023-04-01T04:48:04;10.30;99.90
7159;DHT22;63175;52.374;13.132;2023-04-01T04:50:31;10.30;99.90
7159;DHT22;63175;52.374;13.132;2023-04-01T04:52:58;10.30;99.90
7159;DHT22;63175;52.374;13.132;2023-04-01T04:55:26;10.30;99.90
7159;DHT22;63175;52.374;13.132;2023-04-01T04:57:53;10.30;99.90
7159;DHT22;63175;52.374;13.132;2023-04-01T05:00:20;10.30;99.90
7159;DHT22;63175;52.374;13.132;2023-04-01T05:02:47;10.30;99.90
7159;DHT22;63175;52.374;13.132;2023-04-01T05:05:14;10.40;99.90
7159;DHT22;63175;52.374;13.132;2023-04-01T05:07:41;10.30;99.90
7159;DHT22;63175;52.374;13.132;2023-04-01T05:10:08;10.40;99.90
7159;DHT22;63175;52.374;13.132;2023-04-01T05:12:37;10.30;99.90
7159;DHT22;63175;52.374;13.132;2023-04-01T05:15:05;10.40;99.90
7159;DHT22;63175;52.374;13.132;2023-04-01T05:17:32;10.40;99.90
7159;DHT22;63175;52.374;13.132;2023-04-01T05:19:59;10.40;99.90
7159;DHT22;63175;52.374;13.132;2023-04-01T05:22:26;10.40;99.90
7159;DHT22;63175;52.374;13.132;2023-04-01T05:24:53;10.20;99.90
7159;DHT22;63175;52.374;13.132;2023-04-01T05:27:19;10.40;99.90
7159;DHT22;63175;52.374;13.132;2023-04-01T05:29:48;10.40;99.90
7159;DHT22;63175;52.374;13.132;2023-04-01T05:32:15;10.40;99.90
7159;DHT22;63175;52.374;13.132;2023-04-01T05:34:42;10.40;99.90
7159;DHT22;63175;52.374;13.132;2023-04-01T05:37:09;10.40;99.90
7159;DHT22;63175;52.374;13.132;2023-04-01T05:39:37;10.50;99.90
7159;DHT22;63175;52.374;13.132;2023-04-01T05:42:05;10.50;99.90
7159;DHT22;63175;52.374;13.132;2023-04-01T05:44:32;10.50;99.90
7159;DHT22;63175;52.374;13.132;2023-04-01T05:47:01;10.60;99.90
7159;DHT22;63175;52.374;13.132;2023-04-01T05:49:28;10.60;99.90
7159;DHT22;63175;52.374;13.132;2023-04-01T05:51:55;10.60;99.90
7159;DHT22;63175;52.374;13.132;2023-04-01T05:54:22;10.70;99.90
7159;DHT22;63175;52.374;13.132;2023-04-01T05:56:48;10.70;99.90
7159;DHT22;63175;52.374;13.132;2023-04-01T05:59:15;10.70;99.90
7159;DHT22;63175;52.374;13.132;2023-04-01T06:01:42;10.70;99.90
7159;DHT22;63175;52.374;13.132;2023-04-01T06:04:13;10.80;99.90
7159;DHT22;63175;52.374;13.132;2023-04-01T06:06:41;10.80;99.90
7159;DHT22;63175;52.374;13.132;2023-04-01T06:09:13;10.90;99.90
7159;DHT22;63175;52.374;13.132;2023-04-01T06:11:51;10.90;99.90
7159;DHT22;63175;52.374;13.132;2023-04-01T06:14:27;11.00;99.90
7159;DHT22;63175;52.374;13.132;2023-04-01T06:17:10;11.00;99.90
7159;DHT22;63175;52.374;13.132;2023-04-01T06:19:47;11.00;99.90
7159;DHT22;63175;52.374;13.132;2023-04-01T06:22:40;11.00;99.90
7159;DHT22;63175;52.374;13.132;2023-04-01T06:25:34;11.00;99.90
7159;DHT22;63175;52.374;13.132;2023-04-01T06:31:31;11.10;99.90
7159;DHT22;63175;52.374;13.132;2023-04-01T06:34:22;11.10;99.90
7159;DHT22;63175;52.374;13.132;2023-04-01T06:37:11;11.10;99.90
7159;DHT22;63175;52.374;13.132;2023-04-01T06:40:03;11.10;99.90
7159;DHT22;63175;52.374;13.132;2023-04-01T06:42:49;11.10;99.90
7159;DHT22;63175;52.374;13.132;2023-04-01T06:45:28;11.10;99.90
7159;DHT22;63175;52.374;13.132;2023-04-01T06:48:18;11.10;99.90
7159;DHT22;63175;52.374;13.132;2023-04-01T06:50:54;11.10;99.90
7159;DHT22;63175;52.374;13.132;2023-04-01T06:53:31;11.10;99.90
7159;DHT22;63175;52.374;13.132;2023-04-01T06:56:04;11.10;99.90
7159;DHT22;63175;52.374;13.132;2023-04-01T06:58:37;11.10;99.90
7159;DHT22;63175;52.374;13.132;2023-04-01T07:01:08;11.10;99.90
7159;DHT22;63175;52.374;13.132;2023-04-01T07:03:40;11.10;99.90
7159;DHT22;63175;52.374;13.132;2023-04-01T07:06:10;11.10;99.90
7159;DHT22;63175;52.374;13.132;2023-04-01T07:08:43;11.20;99.90
7159;DHT22;63175;52.374;13.132;2023-04-01T07:11:13;11.20;99.90
7159;DHT22;63175;52.374;13.132;2023-04-01T07:13:46;11.20;99.90
7159;DHT22;63175;52.374;13.132;2023-04-01T07:16:18;11.30;99.90
7159;DHT22;63175;52.374;13.132;2023-04-01T07:18:50;11.30;99.90
7159;DHT22;63175;52.374;13.132;2023-04-01T07:21:25;11.30;99.90
7159;DHT22;63175;52.374;13.132;2023-04-01T07:23:57;11.30;99.90
7159;DHT22;63175;52.374;13.132;2023-04-01T07:26:27;11.40;99.90
7159;DHT22;63175;52.374;13.132;2023-04-01T07:28:54;11.40;99.90
7159;DHT22;63175;52.374;13.132;2023-04-01T07:31:32;11.50;99.90
7159;DHT22;63175;52.374;13.132;2023-04-01T07:34:07;11.50;99.90
7159;DHT22;63175;52.374;13.132;2023-04-01T07:36:40;11.60;99.90
7159;DHT22;63175;52.374;13.132;2023-04-01T07:39:21;11.60;99.90
7159;DHT22;63175;52.374;13.132;2023-04-01T07:41:56;11.70;99.90
7159;DHT22;63175;52.374;13.132;2023-04-01T07:44:32;11.70;99.90
7159;DHT22;63175;52.374;13.132;2023-04-01T07:47:12;11.80;99.90
7159;DHT22;63175;52.374;13.132;2023-04-01T07:49:50;11.80;99.90
7159;DHT22;63175;52.374;13.132;2023-04-01T07:52:23;12.10;99.90
7159;DHT22;63175;52.374;13.132;2023-04-01T07:54:57;11.80;99.90
7159;DHT22;63175;52.374;13.132;2023-04-01T07:57:32;11.80;99.90
7159;DHT22;63175;52.374;13.132;2023-04-01T08:00:07;11.90;99.90
7159;DHT22;63175;52.374;13.132;2023-04-01T08:02:49;11.90;99.90
7159;DHT22;63175;52.374;13.132;2023-04-01T08:05:22;12.00;99.90
7159;DHT22;63175;52.374;13.132;2023-04-01T08:07:59;12.00;99.90
7159;DHT22;63175;52.374;13.132;2023-04-01T08:10:33;12.10;99.90
7159;DHT22;63175;52.374;13.132;2023-04-01T08:13:10;12.10;99.90
7159;DHT22;63175;52.374;13.132;2023-04-01T08:15:45;12.20;99.90
7159;DHT22;63175;52.374;13.132;2023-04-01T08:18:22;12.20;99.90
7159;DHT22;63175;52.374;13.132;2023-04-01T08:20:58;12.20;99.90
7159;DHT22;63175;52.374;13.132;2023-04-01T08:23:27;12.30;99.90
7159;DHT22;63175;52.374;13.132;2023-04-01T08:26:02;12.30;99.90
7159;DHT22;63175;52.374;13.132;2023-04-01T08:33:05;12.30;99.90
7159;DHT22;63175;52.374;13.132;2023-04-01T08:35:38;12.40;99.90
7159;DHT22;63175;52.374;13.132;2023-04-01T08:38:11;12.40;99.90
7159;DHT22;63175;52.374;13.132;2023-04-01T08:40:55;12.50;99.90
7159;DHT22;63175;52.374;13.132;2023-04-01T08:46:22;12.50;99.90
7159;DHT22;63175;52.374;13.132;2023-04-01T08:49:00;12.60;99.90
7159;DHT22;63175;52.374;13.132;2023-04-01T08:51:49;12.50;99.90
7159;DHT22;63175;52.374;13.132;2023-04-01T08:54:34;12.60;99.90
7159;DHT22;63175;52.374;13.132;2023-04-01T08:57:10;12.70;99.90
7159;DHT22;63175;52.374;13.132;2023-04-01T08:59:57;12.70;99.90
7159;DHT22;63175;52.374;13.132;2023-04-01T09:02:55;12.80;99.90
7159;DHT22;63175;52.374;13.132;2023-04-01T09:05:47;12.80;99.90
7159;DHT22;63175;52.374;13.132;2023-04-01T09:08:31;12.80;99.90
7159;DHT22;63175;52.374;13.132;2023-04-01T09:11:12;12.80;99.90
7159;DHT22;63175;52.374;13.132;2023-04-01T09:16:49;12.90;99.90
7159;DHT22;63175;52.374;13.132;2023-04-01T09:19:28;12.90;99.90
7159;DHT22;63175;52.374;13.132;2023-04-01T09:22:12;12.90;99.90
7159;DHT22;63175;52.374;13.132;2023-04-01T09:24:52;13.00;99.90
7159;DHT22;63175;52.374;13.132;2023-04-01T09:27:27;13.00;99.90
7159;DHT22;63175;52.374;13.132;2023-04-01T09:36:21;13.30;99.90
7159;DHT22;63175;52.374;13.132;2023-04-01T09:38:56;13.40;99.90
7159;DHT22;63175;52.374;13.132;2023-04-01T09:41:29;13.30;99.90
7159;DHT22;63175;52.374;13.132;2023-04-01T09:44:02;13.30;99.90
7159;DHT22;63175;52.374;13.132;2023-04-01T09:46:42;13.30;99.90
7159;DHT22;63175;52.374;13.132;2023-04-01T09:49:38;13.30;99.90
7159;DHT22;63175;52.374;13.132;2023-04-01T09:52:26;13.30;99.90
7159;DHT22;63175;52.374;13.132;2023-04-01T09:55:15;13.20;99.90
7159;DHT22;63175;52.374;13.132;2023-04-01T10:07:51;13.30;99.90
7159;DHT22;63175;52.374;13.132;2023-04-01T10:10:53;13.30;99.90
7159;DHT22;63175;52.374;13.132;2023-04-01T10:16:54;13.30;99.90
7159;DHT22;63175;52.374;13.132;2023-04-01T10:23:02;13.20;99.90
7159;DHT22;63175;52.374;13.132;2023-04-01T10:32:10;13.10;99.90
7159;DHT22;63175;52.374;13.132;2023-04-01T10:35:08;13.00;99.90
7159;DHT22;63175;52.374;13.132;2023-04-01T10:38:12;12.90;99.90
7159;DHT22;63175;52.374;13.132;2023-04-01T10:41:11;12.70;99.90
7159;DHT22;63175;52.374;13.132;2023-04-01T10:50:24;12.30;99.90
7159;DHT22;63175;52.374;13.132;2023-04-01T10:53:20;12.20;99.90
7159;DHT22;63175;52.374;13.132;2023-04-01T10:59:25;12.20;99.90
7159;DHT22;63175;52.374;13.132;2023-04-01T11:02:28;12.20;99.90
7159;DHT22;63175;52.374;13.132;2023-04-01T11:08:47;12.20;99.90
7159;DHT22;63175;52.374;13.132;2023-04-01T11:18:02;12.30;99.90
7159;DHT22;63175;52.374;13.132;2023-04-01T11:20:52;12.30;99.90
7159;DHT22;63175;52.374;13.132;2023-04-01T11:26:51;12.30;99.90
7159;DHT22;63175;52.374;13.132;2023-04-01T11:29:32;12.40;99.90
7159;DHT22;63175;52.374;13.132;2023-04-01T11:32:09;12.40;99.90
7159;DHT22;63175;52.374;13.132;2023-04-01T11:34:52;12.60;99.90
7159;DHT22;63175;52.374;13.132;2023-04-01T11:37:29;12.70;99.90
7159;DHT22;63175;52.374;13.132;2023-04-01T11:40:10;12.80;99.90
7159;DHT22;63175;52.374;13.132;2023-04-01T11:42:46;13.00;99.90
7159;DHT22;63175;52.374;13.132;2023-04-01T11:45:24;13.10;99.90
7159;DHT22;63175;52.374;13.132;2023-04-01T11:48:13;13.20;99.90
7159;DHT22;63175;52.374;13.132;2023-04-01T11:50:56;13.30;99.90
7159;DHT22;63175;52.374;13.132;2023-04-01T11:53:32;13.50;99.90
7159;DHT22;63175;52.374;13.132;2023-04-01T11:56:11;13.50;99.90
7159;DHT22;63175;52.374;13.132;2023-04-01T12:01:52;13.70;99.90
7159;DHT22;63175;52.374;13.132;2023-04-01T12:04:51;13.60;99.90
7159;DHT22;63175;52.374;13.132;2023-04-01T12:07:40;13.60;99.90
7159;DHT22;63175;52.374;13.132;2023-04-01T12:10:17;13.40;99.90
7159;DHT22;63175;52.374;13.132;2023-04-01T12:12:54;13.30;99.90
7159;DHT22;63175;52.374;13.132;2023-04-01T12:15:33;13.10;99.90
7159;DHT22;63175;52.374;13.132;2023-04-01T12:18:10;13.00;99.90
7159;DHT22;63175;52.374;13.132;2023-04-01T12:20:49;12.80;99.90
7159;DHT22;63175;52.374;13.132;2023-04-01T12:23:34;12.70;99.90
7159;DHT22;63175;52.374;13.132;2023-04-01T12:26:30;12.60;99.90
7159;DHT22;63175;52.374;13.132;2023-04-01T12:29:09;12.50;99.90
7159;DHT22;63175;52.374;13.132;2023-04-01T12:31:49;12.50;99.90
7159;DHT22;63175;52.374;13.132;2023-04-01T12:34:45;12.40;99.90
7159;DHT22;63175;52.374;13.132;2023-04-01T12:37:20;12.40;99.90
7159;DHT22;63175;52.374;13.132;2023-04-01T12:39:58;12.40;99.90
7159;DHT22;63175;52.374;13.132;2023-04-01T12:42:44;12.40;99.90
7159;DHT22;63175;52.374;13.132;2023-04-01T12:45:38;12.30;99.90
7159;DHT22;63175;52.374;13.132;2023-04-01T12:48:39;12.20;99.90
7159;DHT22;63175;52.374;13.132;2023-04-01T12:54:22;12.00;99.90
7159;DHT22;63175;52.374;13.132;2023-04-01T12:57:07;11.90;99.90
7159;DHT22;63175;52.374;13.132;2023-04-01T12:59:49;11.80;99.90
7159;DHT22;63175;52.374;13.132;2023-04-01T13:02:27;11.80;99.90
7159;DHT22;63175;52.374;13.132;2023-04-01T13:05:22;11.80;99.90
7159;DHT22;63175;52.374;13.132;2023-04-01T13:08:15;11.70;99.90
7159;DHT22;63175;52.374;13.132;2023-04-01T13:11:07;11.60;99.90
7159;DHT22;63175;52.374;13.132;2023-04-01T13:16:36;11.50;99.90
7159;DHT22;63175;52.374;13.132;2023-04-01T13:19:07;11.50;99.90
7159;DHT22;63175;52.374;13.132;2023-04-01T13:21:47;11.50;99.90
7159;DHT22;63175;52.374;13.132;2023-04-01T13:24:28;11.50;99.90
7159;DHT22;63175;52.374;13.132;2023-04-01T13:27:01;11.50;99.90
7159;DHT22;63175;52.374;13.132;2023-04-01T13:29:32;11.50;99.90
7159;DHT22;63175;52.374;13.132;2023-04-01T13:32:22;11.50;99.90
7159;DHT22;63175;52.374;13.132;2023-04-01T13:34:59;11.50;99.90
7159;DHT22;63175;52.374;13.132;2023-04-01T13:37:45;11.40;99.90
7159;DHT22;63175;52.374;13.132;2023-04-01T13:40:28;11.40;99.90
7159;DHT22;63175;52.374;13.132;2023-04-01T13:43:02;11.30;99.90
7159;DHT22;63175;52.374;13.132;2023-04-01T13:45:38;11.30;99.90
7159;DHT22;63175;52.374;13.132;2023-04-01T13:54:43;11.10;99.90
7159;DHT22;63175;52.374;13.132;2023-04-01T13:57:22;11.10;99.90
7159;DHT22;63175;52.374;13.132;2023-04-01T14:00:00;11.10;99.90
7159;DHT22;63175;52.374;13.132;2023-04-01T14:02:47;11.00;99.90
7159;DHT22;63175;52.374;13.132;2023-04-01T14:08:26;10.90;99.90
7159;DHT22;63175;52.374;13.132;2023-04-01T14:11:07;10.90;99.90
7159;DHT22;63175;52.374;13.132;2023-04-01T14:13:43;10.80;99.90
7159;DHT22;63175;52.374;13.132;2023-04-01T14:16:32;10.80;99.90
7159;DHT22;63175;52.374;13.132;2023-04-01T14:19:17;10.70;99.90
7159;DHT22;63175;52.374;13.132;2023-04-01T14:21:53;10.70;99.90
7159;DHT22;63175;52.374;13.132;2023-04-01T14:30:34;10.70;99.90
7159;DHT22;63175;52.374;13.132;2023-04-01T14:33:11;10.60;99.90
7159;DHT22;63175;52.374;13.132;2023-04-01T14:35:48;10.50;99.90
7159;DHT22;63175;52.374;13.132;2023-04-01T14:38:25;10.50;99.90
7159;DHT22;63175;52.374;13.132;2023-04-01T14:41:06;10.50;99.90
7159;DHT22;63175;52.374;13.132;2023-04-01T14:47:24;10.40;99.90
7159;DHT22;63175;52.374;13.132;2023-04-01T14:50:03;10.40;99.90
7159;DHT22;63175;52.374;13.132;2023-04-01T14:52:33;10.30;99.90
7159;DHT22;63175;52.374;13.132;2023-04-01T14:55:18;10.30;99.90
7159;DHT22;63175;52.374;13.132;2023-04-01T14:57:58;10.30;99.90
7159;DHT22;63175;52.374;13.132;2023-04-01T15:00:27;10.20;99.90
7159;DHT22;63175;52.374;13.132;2023-04-01T15:03:11;10.20;99.90
7159;DHT22;63175;52.374;13.132;2023-04-01T15:05:46;10.20;99.90
7159;DHT22;63175;52.374;13.132;2023-04-01T15:08:20;10.10;99.90
7159;DHT22;63175;52.374;13.132;2023-04-01T15:11:04;10.10;99.90
7159;DHT22;63175;52.374;13.132;2023-04-01T15:13:55;10.10;99.90
7159;DHT22;63175;52.374;13.132;2023-04-01T15:16:31;10.00;99.90
7159;DHT22;63175;52.374;13.132;2023-04-01T15:19:09;10.00;99.90
7159;DHT22;63175;52.374;13.132;2023-04-01T15:21:48;10.00;99.90
7159;DHT22;63175;52.374;13.132;2023-04-01T15:24:22;10.00;99.90
7159;DHT22;63175;52.374;13.132;2023-04-01T15:27:13;10.00;99.90
7159;DHT22;63175;52.374;13.132;2023-04-01T15:30:05;9.90;99.90
7159;DHT22;63175;52.374;13.132;2023-04-01T15:32:47;9.90;99.90
7159;DHT22;63175;52.374;13.132;2023-04-01T15:35:25;9.90;99.90
7159;DHT22;63175;52.374;13.132;2023-04-01T15:38:05;9.80;99.90
7159;DHT22;63175;52.374;13.132;2023-04-01T15:40:40;9.80;99.90
7159;DHT22;63175;52.374;13.132;2023-04-01T15:43:21;9.80;99.90
7159;DHT22;63175;52.374;13.132;2023-04-01T15:45:58;9.70;99.90
7159;DHT22;63175;52.374;13.132;2023-04-01T15:48:44;9.70;99.90
7159;DHT22;63175;52.374;13.132;2023-04-01T15:51:24;9.70;99.90
7159;DHT22;63175;52.374;13.132;2023-04-01T15:57:11;9.70;99.90
7159;DHT22;63175;52.374;13.132;2023-04-01T16:02:44;9.60;99.90
7159;DHT22;63175;52.374;13.132;2023-04-01T16:05:31;9.60;99.90
7159;DHT22;63175;52.374;13.132;2023-04-01T16:08:23;9.60;99.90
7159;DHT22;63175;52.374;13.132;2023-04-01T16:11:18;9.60;99.90
7159;DHT22;63175;52.374;13.132;2023-04-01T16:13:56;9.50;99.90
7159;DHT22;63175;52.374;13.132;2023-04-01T16:16:38;9.50;99.90
7159;DHT22;63175;52.374;13.132;2023-04-01T16:19:25;9.50;99.90
7159;DHT22;63175;52.374;13.132;2023-04-01T16:22:00;9.50;99.90
7159;DHT22;63175;52.374;13.132;2023-04-01T16:24:34;9.50;99.90
7159;DHT22;63175;52.374;13.132;2023-04-01T16:27:05;9.50;99.90
7159;DHT22;63175;52.374;13.132;2023-04-01T16:29:43;9.40;99.90
7159;DHT22;63175;52.374;13.132;2023-04-01T16:32:24;9.50;99.90
7159;DHT22;63175;52.374;13.132;2023-04-01T16:35:03;9.50;99.90
7159;DHT22;63175;52.374;13.132;2023-04-01T16:37:39;9.40;99.90
7159;DHT22;63175;52.374;13.132;2023-04-01T16:40:16;9.40;99.90
7159;DHT22;63175;52.374;13.132;2023-04-01T16:42:51;9.40;99.90
7159;DHT22;63175;52.374;13.132;2023-04-01T16:45:32;9.30;99.90
7159;DHT22;63175;52.374;13.132;2023-04-01T16:48:07;9.30;99.90
7159;DHT22;63175;52.374;13.132;2023-04-01T16:50:44;9.30;99.90
7159;DHT22;63175;52.374;13.132;2023-04-01T16:53:18;9.30;99.90
7159;DHT22;63175;52.374;13.132;2023-04-01T16:55:49;9.30;99.90
7159;DHT22;63175;52.374;13.132;2023-04-01T16:58:22;9.20;99.90
7159;DHT22;63175;52.374;13.132;2023-04-01T17:00:53;9.20;99.90
7159;DHT22;63175;52.374;13.132;2023-04-01T17:03:27;9.10;99.90
7159;DHT22;63175;52.374;13.132;2023-04-01T17:06:03;9.10;99.90
7159;DHT22;63175;52.374;13.132;2023-04-01T17:08:48;9.10;99.90
7159;DHT22;63175;52.374;13.132;2023-04-01T17:11:20;9.00;99.90
7159;DHT22;63175;52.374;13.132;2023-04-01T17:14:01;9.00;99.90
7159;DHT22;63175;52.374;13.132;2023-04-01T17:16:54;8.90;99.90
7159;DHT22;63175;52.374;13.132;2023-04-01T17:19:39;8.90;99.90
7159;DHT22;63175;52.374;13.132;2023-04-01T17:22:20;8.70;99.90
7159;DHT22;63175;52.374;13.132;2023-04-01T17:25:01;8.80;99.90
7159;DHT22;63175;52.374;13.132;2023-04-01T17:27:37;8.70;99.90
7159;DHT22;63175;52.374;13.132;2023-04-01T17:30:18;8.70;99.90
7159;DHT22;63175;52.374;13.132;2023-04-01T17:32:59;8.70;99.90
7159;DHT22;63175;52.374;13.132;2023-04-01T17:35:33;8.70;99.90
7159;DHT22;63175;52.374;13.132;2023-04-01T17:38:13;8.60;99.90
7159;DHT22;63175;52.374;13.132;2023-04-01T17:40:53;8.60;99.90
7159;DHT22;63175;52.374;13.132;2023-04-01T17:43:32;8.50;99.90
7159;DHT22;63175;52.374;13.132;2023-04-01T17:46:10;8.50;99.90
7159;DHT22;63175;52.374;13.132;2023-04-01T17:48:49;8.50;99.90
7159;DHT22;63175;52.374;13.132;2023-04-01T17:51:24;8.40;99.90
7159;DHT22;63175;52.374;13.132;2023-04-01T17:54:05;8.40;99.90
7159;DHT22;63175;52.374;13.132;2023-04-01T17:56:45;8.40;99.90
7159;DHT22;63175;52.374;13.132;2023-04-01T17:59:21;8.30;99.90
7159;DHT22;63175;52.374;13.132;2023-04-01T18:01:55;8.30;99.90
7159;DHT22;63175;52.374;13.132;2023-04-01T18:04:40;8.20;99.90
7159;DHT22;63175;52.374;13.132;2023-04-01T18:07:24;8.20;99.90